sensor_id;sensor_type;location;lat;lon;timestamp;temperature;humidity
40023;DHT22;25713;-35.352;149.036;2023-05-27T00:01:01;10.40;73.90
40023;DHT22;25713;-35.352;149.036;2023-05-27T00:03:33;10.40;73.00
40023;DHT22;25713;-35.352;149.036;2023-05-27T00:06:02;10.40;73.00
40023;DHT22;25713;-35.352;149.036;2023-05-27T00:08:33;10.40;72.60
40023;DHT22;25713;-35.352;149.036;2023-05-27T00:11:07;10.40;72.00
40023;DHT22;25713;-35.352;149.036;2023-05-27T00:13:36;10.40;71.60
40023;DHT22;25713;-35.352;149.036;2023-05-27T00:16:07;10.40;72.10
40023;DHT22;25713;-35.352;149.036;2023-05-27T00:18:39;10.40;72.20
40023;DHT22;25713;-35.352;149.036;2023-05-27T00:21:09;10.40;74.60
40023;DHT22;25713;-35.352;149.036;2023-05-27T00:23:38;10.40;74.20
40023;DHT22;25713;-35.352;149.036;2023-05-27T00:26:08;10.40;72.80
40023;DHT22;25713;-35.352;149.036;2023-05-27T00:28:37;10.30;71.90
40023;DHT22;25713;-35.352;149.036;2023-05-27T00:31:07;10.30;72.40
40023;DHT22;25713;-35.352;149.036;2023-05-27T00:33:38;10.30;72.80
40023;DHT22;25713;-35.352;149.036;2023-05-27T00:36:07;10.30;72.20
40023;DHT22;25713;-35.352;149.036;2023-05-27T00:38:37;10.30;71.90
40023;DHT22;25713;-35.352;149.036;2023-05-27T00:41:07;10.30;71.90
40023;DHT22;25713;-35.352;149.036;2023-05-27T00:43:36;10.30;74.30
40023;DHT22;25713;-35.352;149.036;2023-05-27T00:46:06;10.30;73.90
40023;DHT22;25713;-35.352;149.036;2023-05-27T00:48:37;10.30;72.60
40023;DHT22;25713;-35.352;149.036;2023-05-27T00:51:07;10.30;72.30
40023;DHT22;25713;-35.352;149.036;2023-05-27T00:53:39;10.20;72.00
40023;DHT22;25713;-35.352;149.036;2023-05-27T00:56:09;10.30;72.00
40023;DHT22;25713;-35.352;149.036;2023-05-27T00:58:39;10.30;71.10
40023;DHT22;25713;-35.352;149.036;2023-05-27T01:01:09;10.20;72.50
40023;DHT22;25713;-35.352;149.036;2023-05-27T01:03:41;10.20;72.50
40023;DHT22;25713;-35.352;149.036;2023-05-27T01:06:18;10.20;72.00
40023;DHT22;25713;-35.352;149.036;2023-05-27T01:08:57;10.20;71.90
40023;DHT22;25713;-35.352;149.036;2023-05-27T01:11:32;10.20;73.50
40023;DHT22;25713;-35.352;149.036;2023-05-27T01:14:07;10.20;73.30
40023;DHT22;25713;-35.352;149.036;2023-05-27T01:16:39;10.20;73.60
40023;DHT22;25713;-35.352;149.036;2023-05-27T01:19:14;10.20;72.80
40023;DHT22;25713;-35.352;149.036;2023-05-27T01:21:48;10.20;73.20
40023;DHT22;25713;-35.352;149.036;2023-05-27T01:24:19;10.10;72.80
40023;DHT22;25713;-35.352;149.036;2023-05-27T01:26:49;10.20;73.10
40023;DHT22;25713;-35.352;149.036;2023-05-27T01:29:19;10.20;73.10
40023;DHT22;25713;-35.352;149.036;2023-05-27T01:31:57;10.20;74.10
40023;DHT22;25713;-35.352;149.036;2023-05-27T01:34:37;10.10;73.50
40023;DHT22;25713;-35.352;149.036;2023-05-27T01:37:11;10.10;74.00
40023;DHT22;25713;-35.352;149.036;2023-05-27T01:39:45;10.10;73.30
40023;DHT22;25713;-35.352;149.036;2023-05-27T01:42:16;10.20;74.20
40023;DHT22;25713;-35.352;149.036;2023-05-27T01:44:47;10.20;74.20
40023;DHT22;25713;-35.352;149.036;2023-05-27T01:47:17;10.20;74.70
40023;DHT22;25713;-35.352;149.036;2023-05-27T01:49:46;10.20;74.30
40023;DHT22;25713;-35.352;149.036;2023-05-27T01:52:16;10.30;73.40
40023;DHT22;25713;-35.352;149.036;2023-05-27T01:54:49;10.30;73.10
40023;DHT22;25713;-35.352;149.036;2023-05-27T01:57:18;10.30;73.90
40023;DHT22;25713;-35.352;149.036;2023-05-27T01:59:48;10.30;75.00
40023;DHT22;25713;-35.352;149.036;2023-05-27T02:02:17;10.30;75.10
40023;DHT22;25713;-35.352;149.036;2023-05-27T02:04:46;10.30;75.60
40023;DHT22;25713;-35.352;149.036;2023-05-27T02:07:16;10.30;74.90
40023;DHT22;25713;-35.352;149.036;2023-05-27T02:09:48;10.30;75.20
40023;DHT22;25713;-35.352;149.036;2023-05-27T02:12:18;10.30;76.10
40023;DHT22;25713;-35.352;149.036;2023-05-27T02:14:47;10.30;75.60
40023;DHT22;25713;-35.352;149.036;2023-05-27T02:17:17;10.40;73.80
40023;DHT22;25713;-35.352;149.036;2023-05-27T02:19:47;10.40;73.00
40023;DHT22;25713;-35.352;149.036;2023-05-27T02:22:16;10.40;72.30
40023;DHT22;25713;-35.352;149.036;2023-05-27T02:24:48;10.40;72.30
40023;DHT22;25713;-35.352;149.036;2023-05-27T02:27:17;10.50;72.40
40023;DHT22;25713;-35.352;149.036;2023-05-27T02:29:47;10.50;72.20
40023;DHT22;25713;-35.352;149.036;2023-05-27T02:32:16;10.60;72.50
40023;DHT22;25713;-35.352;149.036;2023-05-27T02:34:46;10.60;72.40
40023;DHT22;25713;-35.352;149.036;2023-05-27T02:37:16;10.70;72.40
40023;DHT22;25713;-35.352;149.036;2023-05-27T02:39:45;10.70;72.70
40023;DHT22;25713;-35.352;149.036;2023-05-27T02:42:17;10.80;72.90
40023;DHT22;25713;-35.352;149.036;2023-05-27T02:44:46;10.80;73.00
40023;DHT22;25713;-35.352;149.036;2023-05-27T02:47:16;10.80;73.50
40023;DHT22;25713;-35.352;149.036;2023-05-27T02:49:45;10.90;73.20
40023;DHT22;25713;-35.352;149.036;2023-05-27T02:52:15;10.90;73.70
40023;DHT22;25713;-35.352;149.036;2023-05-27T02:54:45;11.00;73.40
40023;DHT22;25713;-35.352;149.036;2023-05-27T02:57:18;11.00;73.60
40023;DHT22;25713;-35.352;149.036;2023-05-27T02:59:48;11.10;73.40
40023;DHT22;25713;-35.352;149.036;2023-05-27T03:02:18;11.10;73.50
40023;DHT22;25713;-35.352;149.036;2023-05-27T03:04:47;11.20;73.50
40023;DHT22;25713;-35.352;149.036;2023-05-27T03:07:18;11.20;73.20
40023;DHT22;25713;-35.352;149.036;2023-05-27T03:09:48;11.20;73.70
40023;DHT22;25713;-35.352;149.036;2023-05-27T03:12:20;11.20;74.10
40023;DHT22;25713;-35.352;149.036;2023-05-27T03:14:50;11.20;73.80
40023;DHT22;25713;-35.352;149.036;2023-05-27T03:17:20;11.30;73.90
40023;DHT22;25713;-35.352;149.036;2023-05-27T03:19:50;11.30;73.90
40023;DHT22;25713;-35.352;149.036;2023-05-27T03:22:20;11.30;73.50
40023;DHT22;25713;-35.352;149.036;2023-05-27T03:24:49;11.40;73.50
40023;DHT22;25713;-35.352;149.036;2023-05-27T03:27:22;11.40;73.60
40023;DHT22;25713;-35.352;149.036;2023-05-27T03:29:52;11.40;74.00
40023;DHT22;25713;-35.352;149.036;2023-05-27T03:32:22;11.40;73.10
40023;DHT22;25713;-35.352;149.036;2023-05-27T03:34:53;11.50;72.80
40023;DHT22;25713;-35.352;149.036;2023-05-27T03:37:22;11.50;72.70
40023;DHT22;25713;-35.352;149.036;2023-05-27T03:39:59;11.50;72.80
40023;DHT22;25713;-35.352;149.036;2023-05-27T03:42:33;11.50;72.50
40023;DHT22;25713;-35.352;149.036;2023-05-27T03:45:02;11.60;72.30
40023;DHT22;25713;-35.352;149.036;2023-05-27T03:47:32;11.60;72.20
40023;DHT22;25713;-35.352;149.036;2023-05-27T03:50:04;11.50;72.20
40023;DHT22;25713;-35.352;149.036;2023-05-27T03:52:33;11.50;71.80
40023;DHT22;25713;-35.352;149.036;2023-05-27T03:55:04;11.40;71.80
40023;DHT22;25713;-35.352;149.036;2023-05-27T03:57:37;11.40;71.70
40023;DHT22;25713;-35.352;149.036;2023-05-27T04:00:09;11.40;71.20
40023;DHT22;25713;-35.352;149.036;2023-05-27T04:02:50;11.40;70.90
40023;DHT22;25713;-35.352;149.036;2023-05-27T04:05:20;11.40;72.00
40023;DHT22;25713;-35.352;149.036;2023-05-27T04:07:49;11.40;70.70
40023;DHT22;25713;-35.352;149.036;2023-05-27T04:10:21;11.40;71.60
40023;DHT22;25713;-35.352;149.036;2023-05-27T04:12:54;11.40;71.30
40023;DHT22;25713;-35.352;149.036;2023-05-27T04:15:23;11.50;71.60
40023;DHT22;25713;-35.352;149.036;2023-05-27T04:17:54;11.50;71.50
40023;DHT22;25713;-35.352;149.036;2023-05-27T04:20:23;11.50;71.10
40023;DHT22;25713;-35.352;149.036;2023-05-27T04:22:56;11.40;71.00
40023;DHT22;25713;-35.352;149.036;2023-05-27T04:25:26;11.50;71.50
40023;DHT22;25713;-35.352;149.036;2023-05-27T04:28:10;11.50;70.60
40023;DHT22;25713;-35.352;149.036;2023-05-27T04:30:43;11.50;71.80
40023;DHT22;25713;-35.352;149.036;2023-05-27T04:33:35;11.50;70.60
40023;DHT22;25713;-35.352;149.036;2023-05-27T04:36:06;11.50;69.60
40023;DHT22;25713;-35.352;149.036;2023-05-27T04:38:46;11.50;70.60
40023;DHT22;25713;-35.352;149.036;2023-05-27T04:41:15;11.50;70.10
40023;DHT22;25713;-35.352;149.036;2023-05-27T04:44:05;11.50;69.90
40023;DHT22;25713;-35.352;149.036;2023-05-27T04:46:40;11.60;71.30
40023;DHT22;25713;-35.352;149.036;2023-05-27T04:49:09;11.60;71.10
40023;DHT22;25713;-35.352;149.036;2023-05-27T04:51:40;11.70;71.30
40023;DHT22;25713;-35.352;149.036;2023-05-27T04:54:10;11.60;69.90
40023;DHT22;25713;-35.352;149.036;2023-05-27T04:56:41;11.50;70.70
40023;DHT22;25713;-35.352;149.036;2023-05-27T04:59:20;11.50;70.40
40023;DHT22;25713;-35.352;149.036;2023-05-27T05:01:50;11.50;70.70
40023;DHT22;25713;-35.352;149.036;2023-05-27T05:04:26;11.20;70.20
40023;DHT22;25713;-35.352;149.036;2023-05-27T05:06:59;11.10;71.60
40023;DHT22;25713;-35.352;149.036;2023-05-27T05:09:30;11.00;70.90
40023;DHT22;25713;-35.352;149.036;2023-05-27T05:12:06;10.80;72.10
40023;DHT22;25713;-35.352;149.036;2023-05-27T05:14:43;10.80;71.40
40023;DHT22;25713;-35.352;149.036;2023-05-27T05:17:13;10.80;72.00
40023;DHT22;25713;-35.352;149.036;2023-05-27T05:19:43;10.80;72.90
40023;DHT22;25713;-35.352;149.036;2023-05-27T05:22:13;10.90;71.10
40023;DHT22;25713;-35.352;149.036;2023-05-27T05:24:48;10.90;70.30
40023;DHT22;25713;-35.352;149.036;2023-05-27T05:27:19;11.00;70.60
40023;DHT22;25713;-35.352;149.036;2023-05-27T05:30:00;11.10;70.50
40023;DHT22;25713;-35.352;149.036;2023-05-27T05:32:30;11.20;70.00
40023;DHT22;25713;-35.352;149.036;2023-05-27T05:35:00;11.20;69.50
40023;DHT22;25713;-35.352;149.036;2023-05-27T05:37:30;11.20;68.30
40023;DHT22;25713;-35.352;149.036;2023-05-27T05:39:59;11.20;69.80
40023;DHT22;25713;-35.352;149.036;2023-05-27T05:42:29;11.20;69.20
40023;DHT22;25713;-35.352;149.036;2023-05-27T05:45:01;11.20;68.80
40023;DHT22;25713;-35.352;149.036;2023-05-27T05:47:31;11.20;69.20
40023;DHT22;25713;-35.352;149.036;2023-05-27T05:50:10;11.20;68.20
40023;DHT22;25713;-35.352;149.036;2023-05-27T05:52:41;11.30;69.50
40023;DHT22;25713;-35.352;149.036;2023-05-27T05:55:12;11.30;69.60
40023;DHT22;25713;-35.352;149.036;2023-05-27T05:57:41;11.30;69.90
40023;DHT22;25713;-35.352;149.036;2023-05-27T06:00:14;11.40;70.30
40023;DHT22;25713;-35.352;149.036;2023-05-27T06:02:46;11.30;68.60
40023;DHT22;25713;-35.352;149.036;2023-05-27T06:05:35;11.20;69.00
40023;DHT22;25713;-35.352;149.036;2023-05-27T06:08:05;11.10;70.60
40023;DHT22;25713;-35.352;149.036;2023-05-27T06:10:38;11.10;69.50
40023;DHT22;25713;-35.352;149.036;2023-05-27T06:13:08;11.20;69.50
40023;DHT22;25713;-35.352;149.036;2023-05-27T06:15:41;11.20;69.20
40023;DHT22;25713;-35.352;149.036;2023-05-27T06:18:12;11.20;71.00
40023;DHT22;25713;-35.352;149.036;2023-05-27T06:20:42;11.20;69.90
40023;DHT22;25713;-35.352;149.036;2023-05-27T06:23:11;11.20;70.70
40023;DHT22;25713;-35.352;149.036;2023-05-27T06:25:59;11.20;70.20
40023;DHT22;25713;-35.352;149.036;2023-05-27T06:28:32;11.30;70.00
40023;DHT22;25713;-35.352;149.036;2023-05-27T06:31:04;11.30;70.40
40023;DHT22;25713;-35.352;149.036;2023-05-27T06:33:34;11.30;70.90
40023;DHT22;25713;-35.352;149.036;2023-05-27T06:36:03;11.30;70.10
40023;DHT22;25713;-35.352;149.036;2023-05-27T06:38:33;11.30;70.60
40023;DHT22;25713;-35.352;149.036;2023-05-27T06:41:02;11.20;70.30
40023;DHT22;25713;-35.352;149.036;2023-05-27T06:43:32;11.10;70.00
40023;DHT22;25713;-35.352;149.036;2023-05-27T06:46:34;11.10;70.10
40023;DHT22;25713;-35.352;149.036;2023-05-27T06:49:19;11.10;69.90
40023;DHT22;25713;-35.352;149.036;2023-05-27T06:51:50;11.10;70.10
40023;DHT22;25713;-35.352;149.036;2023-05-27T06:54:20;11.10;69.50
40023;DHT22;25713;-35.352;149.036;2023-05-27T06:56:49;11.10;70.10
40023;DHT22;25713;-35.352;149.036;2023-05-27T06:59:37;11.00;71.70
40023;DHT22;25713;-35.352;149.036;2023-05-27T07:02:09;11.10;71.30
40023;DHT22;25713;-35.352;149.036;2023-05-27T07:04:39;11.20;71.40
40023;DHT22;25713;-35.352;149.036;2023-05-27T07:07:11;11.20;70.20
40023;DHT22;25713;-35.352;149.036;2023-05-27T07:09:41;11.30;70.20
40023;DHT22;25713;-35.352;149.036;2023-05-27T07:12:10;11.10;68.20
40023;DHT22;25713;-35.352;149.036;2023-05-27T07:14:54;11.20;70.00
40023;DHT22;25713;-35.352;149.036;2023-05-27T07:17:28;11.30;69.40
40023;DHT22;25713;-35.352;149.036;2023-05-27T07:19:57;11.30;69.50
40023;DHT22;25713;-35.352;149.036;2023-05-27T07:22:27;11.30;69.40
40023;DHT22;25713;-35.352;149.036;2023-05-27T07:24:57;11.30;69.10
40023;DHT22;25713;-35.352;149.036;2023-05-27T07:27:30;11.30;69.60
40023;DHT22;25713;-35.352;149.036;2023-05-27T07:30:01;11.30;69.30
40023;DHT22;25713;-35.352;149.036;2023-05-27T07:32:48;11.40;69.40
40023;DHT22;25713;-35.352;149.036;2023-05-27T07:35:19;11.40;70.10
40023;DHT22;25713;-35.352;149.036;2023-05-27T07:37:48;11.40;69.70
40023;DHT22;25713;-35.352;149.036;2023-05-27T07:40:18;11.40;69.10
40023;DHT22;25713;-35.352;149.036;2023-05-27T07:42:47;11.40;69.00
40023;DHT22;25713;-35.352;149.036;2023-05-27T07:45:17;11.50;69.10
40023;DHT22;25713;-35.352;149.036;2023-05-27T07:47:49;11.50;70.70
40023;DHT22;25713;-35.352;149.036;2023-05-27T07:50:17;11.50;70.10
40023;DHT22;25713;-35.352;149.036;2023-05-27T07:52:58;11.50;69.50
40023;DHT22;25713;-35.352;149.036;2023-05-27T07:55:31;11.50;69.30
40023;DHT22;25713;-35.352;149.036;2023-05-27T07:58:00;11.50;69.30
40023;DHT22;25713;-35.352;149.036;2023-05-27T08:00:36;11.50;69.20
40023;DHT22;25713;-35.352;149.036;2023-05-27T08:03:11;11.60;69.20
40023;DHT22;25713;-35.352;149.036;2023-05-27T08:06:10;11.50;68.90
40023;DHT22;25713;-35.352;149.036;2023-05-27T08:08:54;11.50;69.30
40023;DHT22;25713;-35.352;149.036;2023-05-27T08:11:23;11.50;69.20
40023;DHT22;25713;-35.352;149.036;2023-05-27T08:14:04;11.50;69.40
40023;DHT22;25713;-35.352;149.036;2023-05-27T08:16:48;11.50;69.80
40023;DHT22;25713;-35.352;149.036;2023-05-27T08:19:43;11.50;71.60
40023;DHT22;25713;-35.352;149.036;2023-05-27T08:22:30;11.40;71.10
40023;DHT22;25713;-35.352;149.036;2023-05-27T08:25:18;11.40;71.50
40023;DHT22;25713;-35.352;149.036;2023-05-27T08:28:16;11.30;70.70
40023;DHT22;25713;-35.352;149.036;2023-05-27T08:31:11;11.30;72.80
40023;DHT22;25713;-35.352;149.036;2023-05-27T08:33:43;11.30;71.70
40023;DHT22;25713;-35.352;149.036;2023-05-27T08:36:15;11.30;71.00
40023;DHT22;25713;-35.352;149.036;2023-05-27T08:38:48;11.30;70.60
40023;DHT22;25713;-35.352;149.036;2023-05-27T08:41:29;11.30;70.10
40023;DHT22;25713;-35.352;149.036;2023-05-27T08:44:01;11.30;70.60
40023;DHT22;25713;-35.352;149.036;2023-05-27T08:46:30;11.30;69.90
40023;DHT22;25713;-35.352;149.036;2023-05-27T08:49:01;11.30;70.60
40023;DHT22;25713;-35.352;149.036;2023-05-27T08:51:34;11.30;70.40
40023;DHT22;25713;-35.352;149.036;2023-05-27T08:54:04;11.40;70.10
40023;DHT22;25713;-35.352;149.036;2023-05-27T08:56:34;11.40;70.30
40023;DHT22;25713;-35.352;149.036;2023-05-27T08:59:05;11.40;71.00
40023;DHT22;25713;-35.352;149.036;2023-05-27T09:01:34;11.40;71.30
40023;DHT22;25713;-35.352;149.036;2023-05-27T09:04:04;11.50;71.20
40023;DHT22;25713;-35.352;149.036;2023-05-27T09:06:37;11.40;70.30
40023;DHT22;25713;-35.352;149.036;2023-05-27T09:09:08;11.40;70.20
40023;DHT22;25713;-35.352;149.036;2023-05-27T09:11:40;11.40;69.70
40023;DHT22;25713;-35.352;149.036;2023-05-27T09:14:19;11.50;70.00
40023;DHT22;25713;-35.352;149.036;2023-05-27T09:16:49;11.40;70.00
40023;DHT22;25713;-35.352;149.036;2023-05-27T09:19:19;11.40;69.80
40023;DHT22;25713;-35.352;149.036;2023-05-27T09:21:52;11.40;70.00
40023;DHT22;25713;-35.352;149.036;2023-05-27T09:24:24;11.40;69.90
40023;DHT22;25713;-35.352;149.036;2023-05-27T09:26:55;11.40;69.70
40023;DHT22;25713;-35.352;149.036;2023-05-27T09:29:25;11.30;68.70
40023;DHT22;25713;-35.352;149.036;2023-05-27T09:31:55;11.30;69.40
40023;DHT22;25713;-35.352;149.036;2023-05-27T09:34:25;11.30;69.80
40023;DHT22;25713;-35.352;149.036;2023-05-27T09:36:58;11.30;69.70
40023;DHT22;25713;-35.352;149.036;2023-05-27T09:39:28;11.30;71.90
40023;DHT22;25713;-35.352;149.036;2023-05-27T09:41:57;11.40;71.00
40023;DHT22;25713;-35.352;149.036;2023-05-27T09:44:29;11.30;71.90
40023;DHT22;25713;-35.352;149.036;2023-05-27T09:46:59;11.30;72.50
40023;DHT22;25713;-35.352;149.036;2023-05-27T09:49:30;11.30;72.60
40023;DHT22;25713;-35.352;149.036;2023-05-27T09:52:05;11.40;71.30
40023;DHT22;25713;-35.352;149.036;2023-05-27T09:54:35;11.40;71.60
40023;DHT22;25713;-35.352;149.036;2023-05-27T09:57:06;11.30;72.90
40023;DHT22;25713;-35.352;149.036;2023-05-27T09:59:36;11.40;73.40
40023;DHT22;25713;-35.352;149.036;2023-05-27T10:02:08;11.40;73.50
40023;DHT22;25713;-35.352;149.036;2023-05-27T10:04:38;11.40;72.30
40023;DHT22;25713;-35.352;149.036;2023-05-27T10:07:11;11.40;71.80
40023;DHT22;25713;-35.352;149.036;2023-05-27T10:09:41;11.30;72.80
40023;DHT22;25713;-35.352;149.036;2023-05-27T10:12:10;11.30;74.30
40023;DHT22;25713;-35.352;149.036;2023-05-27T10:14:41;11.30;74.00
40023;DHT22;25713;-35.352;149.036;2023-05-27T10:17:10;11.30;75.10
40023;DHT22;25713;-35.352;149.036;2023-05-27T10:19:56;11.30;74.40
40023;DHT22;25713;-35.352;149.036;2023-05-27T10:22:42;11.30;73.80
40023;DHT22;25713;-35.352;149.036;2023-05-27T10:25:15;11.30;72.60
40023;DHT22;25713;-35.352;149.036;2023-05-27T10:27:45;11.30;73.70
40023;DHT22;25713;-35.352;149.036;2023-05-27T10:30:15;11.30;73.70
40023;DHT22;25713;-35.352;149.036;2023-05-27T10:32:55;11.30;73.30
40023;DHT22;25713;-35.352;149.036;2023-05-27T10:35:27;11.30;74.50
40023;DHT22;25713;-35.352;149.036;2023-05-27T10:38:01;11.30;73.40
40023;DHT22;25713;-35.352;149.036;2023-05-27T10:40:31;11.30;74.10
40023;DHT22;25713;-35.352;149.036;2023-05-27T10:43:01;11.30;71.70
40023;DHT22;25713;-35.352;149.036;2023-05-27T10:45:34;11.30;71.00
40023;DHT22;25713;-35.352;149.036;2023-05-27T10:48:03;11.20;73.90
40023;DHT22;25713;-35.352;149.036;2023-05-27T10:50:50;11.20;74.50
40023;DHT22;25713;-35.352;149.036;2023-05-27T10:53:24;11.20;72.00
40023;DHT22;25713;-35.352;149.036;2023-05-27T10:55:57;11.20;73.00
40023;DHT22;25713;-35.352;149.036;2023-05-27T10:58:28;11.20;74.20
40023;DHT22;25713;-35.352;149.036;2023-05-27T11:00:59;11.20;74.20
40023;DHT22;25713;-35.352;149.036;2023-05-27T11:03:31;11.20;74.90
40023;DHT22;25713;-35.352;149.036;2023-05-27T11:06:01;11.20;75.00
40023;DHT22;25713;-35.352;149.036;2023-05-27T11:08:35;11.20;72.60
40023;DHT22;25713;-35.352;149.036;2023-05-27T11:11:06;11.20;72.70
40023;DHT22;25713;-35.352;149.036;2023-05-27T11:13:38;11.20;74.00
40023;DHT22;25713;-35.352;149.036;2023-05-27T11:16:08;11.20;74.80
40023;DHT22;25713;-35.352;149.036;2023-05-27T11:18:38;11.20;74.60
40023;DHT22;25713;-35.352;149.036;2023-05-27T11:21:08;11.20;74.00
40023;DHT22;25713;-35.352;149.036;2023-05-27T11:23:42;11.20;71.90
40023;DHT22;25713;-35.352;149.036;2023-05-27T11:26:13;11.20;73.50
40023;DHT22;25713;-35.352;149.036;2023-05-27T11:28:50;11.10;75.50
40023;DHT22;25713;-35.352;149.036;2023-05-27T11:31:20;11.20;75.40
40023;DHT22;25713;-35.352;149.036;2023-05-27T11:33:51;11.20;75.70
40023;DHT22;25713;-35.352;149.036;2023-05-27T11:36:25;11.20;73.70
40023;DHT22;25713;-35.352;149.036;2023-05-27T11:38:59;11.20;73.90
40023;DHT22;25713;-35.352;149.036;2023-05-27T11:41:29;11.20;74.20
40023;DHT22;25713;-35.352;149.036;2023-05-27T11:43:59;11.20;74.40
40023;DHT22;25713;-35.352;149.036;2023-05-27T11:46:36;11.20;74.90
40023;DHT22;25713;-35.352;149.036;2023-05-27T11:49:07;11.10;74.10
40023;DHT22;25713;-35.352;149.036;2023-05-27T11:51:38;11.20;74.00
40023;DHT22;25713;-35.352;149.036;2023-05-27T11:54:17;11.10;74.60
40023;DHT22;25713;-35.352;149.036;2023-05-27T11:56:47;11.10;75.20
40023;DHT22;25713;-35.352;149.036;2023-05-27T11:59:17;11.10;75.80
40023;DHT22;25713;-35.352;149.036;2023-05-27T12:01:47;11.10;76.00
40023;DHT22;25713;-35.352;149.036;2023-05-27T12:04:17;11.10;75.30
40023;DHT22;25713;-35.352;149.036;2023-05-27T12:06:46;11.10;73.90
40023;DHT22;25713;-35.352;149.036;2023-05-27T12:09:19;11.10;74.40
40023;DHT22;25713;-35.352;149.036;2023-05-27T12:11:49;11.00;72.00
40023;DHT22;25713;-35.352;149.036;2023-05-27T12:14:18;11.00;73.40
40023;DHT22;25713;-35.352;149.036;2023-05-27T12:16:48;11.00;75.00
40023;DHT22;25713;-35.352;149.036;2023-05-27T12:19:17;11.00;75.70
40023;DHT22;25713;-35.352;149.036;2023-05-27T12:21:47;11.00;76.20
40023;DHT22;25713;-35.352;149.036;2023-05-27T12:24:19;11.00;75.00
40023;DHT22;25713;-35.352;149.036;2023-05-27T12:26:49;11.00;73.80
40023;DHT22;25713;-35.352;149.036;2023-05-27T12:29:18;10.90;70.80
40023;DHT22;25713;-35.352;149.036;2023-05-27T12:31:48;10.70;71.30
40023;DHT22;25713;-35.352;149.036;2023-05-27T12:34:17;10.70;72.80
40023;DHT22;25713;-35.352;149.036;2023-05-27T12:36:47;10.80;73.10
40023;DHT22;25713;-35.352;149.036;2023-05-27T12:39:18;10.70;73.40
40023;DHT22;25713;-35.352;149.036;2023-05-27T12:41:48;10.80;73.40
40023;DHT22;25713;-35.352;149.036;2023-05-27T12:44:18;10.80;72.80
40023;DHT22;25713;-35.352;149.036;2023-05-27T12:46:47;10.80;73.10
40023;DHT22;25713;-35.352;149.036;2023-05-27T12:49:17;10.90;74.30
40023;DHT22;25713;-35.352;149.036;2023-05-27T12:51:46;10.90;74.30
40023;DHT22;25713;-35.352;149.036;2023-05-27T12:54:17;10.80;73.30
40023;DHT22;25713;-35.352;149.036;2023-05-27T12:56:47;10.90;73.30
40023;DHT22;25713;-35.352;149.036;2023-05-27T12:59:16;10.80;73.90
40023;DHT22;25713;-35.352;149.036;2023-05-27T13:01:46;10.90;75.00
40023;DHT22;25713;-35.352;149.036;2023-05-27T13:04:15;10.90;74.60
40023;DHT22;25713;-35.352;149.036;2023-05-27T13:06:45;10.90;74.60
40023;DHT22;25713;-35.352;149.036;2023-05-27T13:09:14;10.90;75.20
40023;DHT22;25713;-35.352;149.036;2023-05-27T13:11:46;10.90;74.00
40023;DHT22;25713;-35.352;149.036;2023-05-27T13:14:15;10.90;72.50
40023;DHT22;25713;-35.352;149.036;2023-05-27T13:16:45;10.90;72.80
40023;DHT22;25713;-35.352;149.036;2023-05-27T13:19:15;10.90;73.90
40023;DHT22;25713;-35.352;149.036;2023-05-27T13:21:44;10.90;73.10
40023;DHT22;25713;-35.352;149.036;2023-05-27T13:24:14;10.90;72.10
40023;DHT22;25713;-35.352;149.036;2023-05-27T13:26:45;10.90;72.90
40023;DHT22;25713;-35.352;149.036;2023-05-27T13:29:14;10.90;73.30
40023;DHT22;25713;-35.352;149.036;2023-05-27T13:31:44;10.90;72.80
40023;DHT22;25713;-35.352;149.036;2023-05-27T13:34:13;10.90;72.30
40023;DHT22;25713;-35.352;149.036;2023-05-27T13:36:43;10.90;73.70
40023;DHT22;25713;-35.352;149.036;2023-05-27T13:39:13;10.90;75.30
40023;DHT22;25713;-35.352;149.036;2023-05-27T13:41:45;10.90;75.30
40023;DHT22;25713;-35.352;149.036;2023-05-27T13:44:15;10.90;75.60
40023;DHT22;25713;-35.352;149.036;2023-05-27T13:46:44;10.90;74.70
40023;DHT22;25713;-35.352;149.036;2023-05-27T13:49:13;10.90;74.20
40023;DHT22;25713;-35.352;149.036;2023-05-27T13:51:46;10.90;75.00
40023;DHT22;25713;-35.352;149.036;2023-05-27T13:54:15;10.90;75.80
40023;DHT22;25713;-35.352;149.036;2023-05-27T13:56:48;10.90;74.00
40023;DHT22;25713;-35.352;149.036;2023-05-27T13:59:18;10.90;75.50
40023;DHT22;25713;-35.352;149.036;2023-05-27T14:01:48;10.90;76.70
40023;DHT22;25713;-35.352;149.036;2023-05-27T14:04:17;10.90;75.40
40023;DHT22;25713;-35.352;149.036;2023-05-27T14:06:46;10.90;74.60
40023;DHT22;25713;-35.352;149.036;2023-05-27T14:09:16;10.90;74.00
40023;DHT22;25713;-35.352;149.036;2023-05-27T14:11:47;10.90;75.10
40023;DHT22;25713;-35.352;149.036;2023-05-27T14:14:17;10.90;74.30
40023;DHT22;25713;-35.352;149.036;2023-05-27T14:16:47;10.90;74.20
40023;DHT22;25713;-35.352;149.036;2023-05-27T14:19:16;10.90;73.90
40023;DHT22;25713;-35.352;149.036;2023-05-27T14:21:47;10.90;73.40
40023;DHT22;25713;-35.352;149.036;2023-05-27T14:24:16;10.90;72.40
40023;DHT22;25713;-35.352;149.036;2023-05-27T14:26:48;10.90;73.60
40023;DHT22;25713;-35.352;149.036;2023-05-27T14:29:17;10.90;73.30
40023;DHT22;25713;-35.352;149.036;2023-05-27T14:31:47;10.80;72.50
40023;DHT22;25713;-35.352;149.036;2023-05-27T14:34:16;10.80;72.40
40023;DHT22;25713;-35.352;149.036;2023-05-27T14:36:46;10.80;73.60
40023;DHT22;25713;-35.352;149.036;2023-05-27T14:39:15;10.80;73.50
40023;DHT22;25713;-35.352;149.036;2023-05-27T14:41:45;10.80;73.80
40023;DHT22;25713;-35.352;149.036;2023-05-27T14:44:16;10.80;73.10
40023;DHT22;25713;-35.352;149.036;2023-05-27T14:46:46;10.80;74.10
40023;DHT22;25713;-35.352;149.036;2023-05-27T15:51:02;10.40;75.40
40023;DHT22;25713;-35.352;149.036;2023-05-27T15:53:33;10.40;75.70
40023;DHT22;25713;-35.352;149.036;2023-05-27T15:56:02;10.30;76.90
40023;DHT22;25713;-35.352;149.036;2023-05-27T15:58:31;10.40;77.90
40023;DHT22;25713;-35.352;149.036;2023-05-27T16:01:01;10.40;75.20
40023;DHT22;25713;-35.352;149.036;2023-05-27T16:03:30;10.40;74.90
40023;DHT22;25713;-35.352;149.036;2023-05-27T16:06:02;10.40;74.50
40023;DHT22;25713;-35.352;149.036;2023-05-27T16:08:32;10.40;73.50
40023;DHT22;25713;-35.352;149.036;2023-05-27T16:11:01;10.50;75.70
40023;DHT22;25713;-35.352;149.036;2023-05-27T16:13:31;10.40;76.10
40023;DHT22;25713;-35.352;149.036;2023-05-27T16:16:00;10.50;74.60
40023;DHT22;25713;-35.352;149.036;2023-05-27T16:18:30;10.50;74.90